Time;durP1;ratioP1;P1;durP2;ratioP2;P2;SDS_P1;SDS_P2;PMS_P1;PMS_P2;Temp;Humidity;BMP_temperature;BMP_pressure;BME280_temperature;BME280_humidity;BME280_pressure;Samples;Min_cycle;Max_cycle;Signal;HPM_P1;HPM_P2
2022/05/21 00:08:41;;;;;;;9.30;5.10;;;;;;;19.98;61.20;97959.27;432693;1270;111108;-44
2022/05/21 00:18:48;;;;;;;9.80;4.80;;;;;;;19.89;61.64;97951.50;432424;1269;108939;-44
2022/05/21 00:28:55;;;;;;;9.20;4.50;;;;;;;19.80;62.01;97942.11;432501;1269;97951;-48
2022/05/21 00:39:02;;;;;;;9.50;4.50;;;;;;;19.63;62.51;97951.98;432630;1270;108964;-43
2022/05/21 00:49:07;;;;;;;8.20;4.10;;;;;;;19.45;63.01;97951.94;432464;1270;96710;-44
2022/05/21 01:09:43;;;;;;;5.40;3.80;;;;;;;19.12;63.87;97969.34;432690;1270;108755;-45
2022/05/21 01:19:55;;;;;;;12.40;4.40;;;;;;;18.95;64.19;97965.03;433816;1259;97907;-41
2022/05/21 01:30:05;;;;;;;7.50;3.50;;;;;;;18.97;64.59;97956.54;433185;1269;108883;-42
2022/05/21 01:40:14;;;;;;;7.40;3.70;;;;;;;18.91;65.02;97949.78;433216;1268;97074;-48
2022/05/21 01:50:22;;;;;;;6.50;3.60;;;;;;;18.84;65.45;97952.20;433387;1270;111091;-48
2022/05/21 02:00:27;;;;;;;7.60;2.40;;;;;;;18.69;65.86;97938.91;433169;1270;108599;-44
2022/05/21 02:10:35;;;;;;;6.80;3.00;;;;;;;18.61;66.60;97953.70;433087;1270;96649;-41
2022/05/21 02:20:41;;;;;;;;;;;;;;;18.52;67.20;97980.27;433282;1270;110161;-44
2022/05/21 02:30:49;;;;;;;4.40;3.00;;;;;;;18.40;67.30;98004.73;433151;1269;108876;-45
2022/05/21 02:40:56;;;;;;;3.00;2.70;;;;;;;18.35;67.99;98000.17;433058;1270;97931;-44
2022/05/21 02:51:04;;;;;;;4.40;3.40;;;;;;;18.30;68.29;97997.75;433370;1270;108859;-46
2022/05/21 03:01:11;;;;;;;7.20;2.70;;;;;;;18.30;68.16;97996.84;433019;1269;97910;-41
2022/05/21 03:21:24;;;;;;;5.80;2.90;;;;;;;18.33;69.04;98005.46;433172;1269;109389;-43
2022/05/21 03:31:32;;;;;;;4.70;3.00;;;;;;;18.37;69.38;98004.42;433263;1270;97068;-42
2022/05/21 03:41:39;;;;;;;4.10;2.30;;;;;;;18.41;69.59;98008.52;433057;1270;111025;-44
2022/05/21 03:51:46;;;;;;;6.00;2.90;;;;;;;18.51;69.88;98021.05;432754;1270;109046;-46
2022/05/21 04:01:53;;;;;;;7.20;2.80;;;;;;;18.66;69.98;98026.56;433046;1270;97888;-45
2022/05/21 04:12:01;;;;;;;5.70;3.60;;;;;;;18.71;70.07;98037.09;432697;1269;109225;-46
2022/05/21 04:22:09;;;;;;;3.70;2.40;;;;;;;18.71;70.14;98046.84;432769;1270;97922;-42
2022/05/21 04:32:16;;;;;;;3.70;2.70;;;;;;;18.89;69.79;98051.21;432814;1270;111083;-43
2022/05/21 04:42:23;;;;;;;5.50;3.60;;;;;;;18.99;70.13;98070.19;432616;1270;108787;-48
2022/05/21 04:52:31;;;;;;;5.40;2.80;;;;;;;18.90;69.84;98087.02;432690;1270;97931;-48
2022/05/21 05:02:37;;;;;;;;;;;;;;;19.15;66.82;98099.35;432828;1270;109149;-48
2022/05/21 05:12:45;;;;;;;5.90;2.60;;;;;;;19.42;64.03;98115.77;432839;1270;97594;-45
2022/05/21 05:22:53;;;;;;;5.50;2.00;;;;;;;20.12;61.80;98128.78;433133;1270;111064;-42
2022/05/21 05:33:00;;;;;;;5.10;2.40;;;;;;;20.54;59.72;98141.04;432953;1270;109625;-46
2022/05/21 05:43:07;;;;;;;3.00;2.00;;;;;;;20.84;58.73;98151.74;432927;1269;97527;-44
2022/05/21 05:53:15;;;;;;;8.70;2.00;;;;;;;21.32;56.83;98153.23;432843;1270;108835;-43
2022/05/21 06:03:20;;;;;;;6.10;1.50;;;;;;;21.31;55.68;98163.60;432997;1270;97964;-42
2022/05/21 06:13:27;;;;;;;6.00;1.10;;;;;;;21.03;55.20;98183.81;433032;1269;111049;-40
2022/05/21 06:23:36;;;;;;;3.60;1.10;;;;;;;21.17;52.17;98191.39;433072;1269;108998;-46
2022/05/21 06:33:42;;;;;;;7.50;0.90;;;;;;;21.29;49.25;98211.17;433144;1270;97879;-42
2022/05/21 06:43:49;;;;;;;12.50;1.10;;;;;;;21.38;48.63;98221.70;432976;1270;111220;-41
2022/05/21 06:53:56;;;;;;;0.90;0.50;;;;;;;21.28;48.52;98233.53;432981;1269;109127;-46
2022/05/21 07:04:04;;;;;;;7.20;1.10;;;;;;;21.55;48.00;98241.37;432964;1269;100230;-40
2022/05/21 07:14:11;;;;;;;1.70;0.50;;;;;;;20.61;48.58;98261.34;433094;1269;111364;-46
2022/05/21 07:24:19;;;;;;;12.10;1.20;;;;;;;20.49;49.67;98262.60;433070;1269;108800;-43
2022/05/21 07:34:27;;;;;;;7.10;0.70;;;;;;;21.00;48.64;98275.41;433059;1269;96665;-45
2022/05/21 07:44:34;;;;;;;4.70;0.50;;;;;;;21.17;46.60;98285.39;433109;1270;109972;-40
2022/05/21 07:54:41;;;;;;;9.70;0.70;;;;;;;21.16;46.42;98305.65;433076;1270;109060;-42
2022/05/21 08:04:50;;;;;;;1.10;0.60;;;;;;;20.99;45.26;98313.63;433210;1270;96644;-41
2022/05/21 08:14:57;;;;;;;4.70;1.00;;;;;;;20.61;45.25;98317.38;433199;1270;109122;-44
2022/05/21 08:35:28;;;;;;;5.70;0.50;;;;;;;21.32;44.46;98328.72;432979;1270;96748;-44
2022/05/21 08:55:56;;;;;;;5.50;0.60;;;;;;;20.95;42.60;98339.75;432487;1269;108610;-45
2022/05/21 09:06:05;;;;;;;2.70;0.80;;;;;;;20.50;43.06;98335.11;433190;1270;97501;-40
2022/05/21 09:26:45;;;;;;;6.90;0.80;;;;;;;21.55;42.63;98353.98;432559;1269;108891;-43
2022/05/21 09:36:53;;;;;;;6.80;1.20;;;;;;;21.92;43.10;98370.13;433428;1269;97517;-43
2022/05/21 09:47:08;;;;;;;;;;;;;;;22.05;41.03;98379.56;433398;1270;110998;-42
2022/05/21 10:17:47;;;;;;;2.70;0.70;;;;;;;21.63;40.26;98395.04;433346;1269;110900;-48
2022/05/21 10:28:05;;;;;;;4.70;1.00;;;;;;;22.34;40.33;98403.67;433403;1270;107829;-47
2022/05/21 10:38:10;;;;;;;;;;;;;;;21.97;39.46;98402.19;433421;1269;97506;-44
2022/05/21 10:48:29;;;;;;;4.60;1.60;;;;;;;21.42;40.61;98403.28;433096;1270;461645;-42
2022/05/21 10:58:40;;;;;;;5.70;0.80;;;;;;;21.00;41.27;98419.31;433584;1270;97901;-47
2022/05/21 11:08:48;;;;;;;9.40;1.20;;;;;;;21.60;41.15;98415.45;433416;1269;110802;-47
2022/05/21 11:19:01;;;;;;;0.80;0.70;;;;;;;21.69;39.92;98431.17;433390;1270;109208;-44
2022/05/21 11:29:06;;;;;;;11.40;1.20;;;;;;;21.80;40.54;98425.76;433606;1269;97953;-47
2022/05/21 11:39:14;;;;;;;5.90;0.90;;;;;;;21.95;40.13;98433.81;433431;1270;108844;-43
2022/05/21 11:49:47;;;;;;;4.20;0.70;;;;;;;22.02;39.73;98436.22;432251;1268;97536;-42
2022/05/21 11:59:56;;;;;;;3.20;1.10;;;;;;;21.52;39.23;98440.52;432564;1270;97929;-42
2022/05/21 12:10:09;;;;;;;7.20;0.90;;;;;;;21.51;39.60;98453.87;432815;1269;112459;-41
2022/05/21 12:20:16;;;;;;;5.20;1.20;;;;;;;21.27;38.63;98466.63;432634;1271;108821;-44
2022/05/21 12:30:24;;;;;;;2.40;1.00;;;;;;;21.10;38.26;98475.64;432714;1270;99244;-41
2022/05/21 12:40:39;;;;;;;3.10;0.90;;;;;;;20.89;38.81;98481.70;432569;1270;108746;-42
2022/05/21 12:50:52;;;;;;;4.30;0.90;;;;;;;20.90;39.13;98481.66;432690;1270;99650;-44
2022/05/21 13:11:16;;;;;;;6.40;1.10;;;;;;;20.82;39.03;98488.70;432979;1269;108763;-47
2022/05/21 13:21:22;;;;;;;4.20;0.70;;;;;;;20.49;38.75;98489.27;432878;1269;99293;-42
2022/05/21 13:31:29;;;;;;;12.80;1.90;;;;;;;20.04;39.52;98499.14;432734;1270;109322;-42
2022/05/21 13:41:41;;;;;;;3.00;1.10;;;;;;;20.11;39.63;98509.87;432961;1269;99356;-45
2022/05/21 13:51:50;;;;;;;5.70;1.20;;;;;;;19.68;39.95;98512.86;433075;1270;112510;-47
2022/05/21 14:02:13;;;;;;;4.60;1.50;;;;;;;19.84;39.97;98510.36;432871;1269;107695;-45
2022/05/21 14:12:24;;;;;;;4.60;0.70;;;;;;;19.99;39.89;98514.53;432954;1269;99276;-41
2022/05/21 14:22:34;;;;;;;4.40;0.90;;;;;;;19.67;39.55;98515.94;432869;1270;108875;-43
2022/05/21 14:32:43;;;;;;;3.60;0.80;;;;;;;19.58;40.12;98516.98;433095;1269;99296;-44
2022/05/21 14:42:52;;;;;;;4.80;1.30;;;;;;;19.24;40.19;98507.89;432939;1270;112462;-43
2022/05/21 14:53:02;;;;;;;2.60;1.60;;;;;;;19.12;40.59;98508.69;432891;1270;108500;-42
2022/05/21 15:03:10;;;;;;;5.20;1.70;;;;;;;19.05;40.87;98504.88;432975;1270;99154;-43
2022/05/21 15:13:18;;;;;;;5.70;4.40;;;;;;;18.99;40.97;98502.60;432986;1270;108763;-45
2022/05/21 15:23:25;;;;;;;4.30;3.50;;;;;;;19.03;41.41;98491.01;432837;1270;99277;-41
2022/05/21 15:33:33;;;;;;;3.70;1.40;;;;;;;19.15;41.66;98476.61;432863;1271;112715;-42
2022/05/21 15:53:49;;;;;;;2.90;0.80;;;;;;;19.12;41.81;98438.05;432906;1269;99343;-42
2022/05/21 16:03:56;;;;;;;3.60;1.40;;;;;;;19.02;42.03;98428.05;432841;1269;108556;-44
2022/05/21 16:14:04;;;;;;;2.10;1.00;;;;;;;19.04;42.09;98413.83;432823;1269;99334;-42
2022/05/21 16:24:10;;;;;;;1.10;1.00;;;;;;;18.84;41.92;98410.63;432640;1270;112387;-42
2022/05/21 16:34:17;;;;;;;3.00;0.90;;;;;;;18.45;42.10;98412.64;432950;1269;108843;-44
2022/05/21 16:44:24;;;;;;;1.10;1.00;;;;;;;18.28;42.39;98407.33;432865;1270;99293;-45
2022/05/21 16:54:30;;;;;;;2.60;0.90;;;;;;;18.18;42.74;98396.34;432907;1270;108156;-43
2022/05/21 17:04:38;;;;;;;1.80;1.00;;;;;;;17.99;42.92;98399.98;432806;1270;99283;-42
2022/05/21 17:14:44;;;;;;;6.30;1.70;;;;;;;17.59;43.99;98406.21;432754;1270;111775;-44
2022/05/21 17:24:52;;;;;;;7.10;1.30;;;;;;;17.07;45.40;98427.36;432945;1270;108996;-43
2022/05/21 17:34:59;;;;;;;3.40;1.30;;;;;;;16.87;46.52;98425.52;432919;1270;99298;-42
2022/05/21 17:45:09;;;;;;;5.10;1.60;;;;;;;16.81;47.18;98426.13;432966;1270;108879;-43
2022/05/21 17:55:20;;;;;;;2.70;1.30;;;;;;;16.57;47.58;98429.79;432955;1270;99308;-42
2022/05/21 18:05:30;;;;;;;6.10;2.10;;;;;;;16.21;47.94;98438.91;432958;1270;112470;-42
2022/05/21 18:26:04;;;;;;;2.30;1.60;;;;;;;15.61;49.07;98454.05;432903;1270;99241;-44
2022/05/21 18:36:12;;;;;;;5.10;2.50;;;;;;;15.53;49.62;98461.27;432874;1270;108929;-42
2022/05/21 18:46:22;;;;;;;3.60;2.20;;;;;;;15.49;50.37;98473.69;432802;1269;99274;-41
2022/05/21 18:56:31;;;;;;;6.10;2.90;;;;;;;15.34;51.51;98473.73;433044;1270;112444;-42
2022/05/21 19:06:39;;;;;;;2.90;2.20;;;;;;;15.11;51.66;98472.77;432927;1270;109291;-41
2022/05/21 19:16:47;;;;;;;7.80;2.70;;;;;;;14.87;51.90;98469.34;432802;1270;99254;-43
2022/05/21 19:26:57;;;;;;;3.50;1.70;;;;;;;14.53;52.36;98465.46;432974;1270;107093;-42
2022/05/21 19:37:05;;;;;;;4.40;2.20;;;;;;;14.26;52.50;98466.80;432871;1270;99327;-42
2022/05/21 19:57:22;;;;;;;4.90;2.40;;;;;;;13.95;53.21;98461.75;432980;1270;108169;-43
2022/05/21 20:07:30;;;;;;;3.40;2.40;;;;;;;13.94;53.51;98462.16;433179;1270;99263;-42
2022/05/21 20:17:38;;;;;;;5.50;2.40;;;;;;;14.00;53.78;98465.09;432955;1270;108842;-43
2022/05/21 20:27:45;;;;;;;3.80;2.20;;;;;;;14.05;53.94;98471.66;432842;1270;99279;-44
2022/05/21 20:37:52;;;;;;;5.90;2.70;;;;;;;14.02;54.73;98480.30;432835;1269;112354;-44
2022/05/21 20:58:25;;;;;;;2.50;2.10;;;;;;;13.96;57.25;98480.63;432886;1270;99254;-43
2022/05/21 21:08:31;;;;;;;4.50;2.30;;;;;;;13.85;58.29;98488.46;432987;1270;109404;-41
2022/05/21 21:18:38;;;;;;;2.50;2.30;;;;;;;13.61;58.40;98492.94;432848;1270;99926;-43
2022/05/21 21:28:47;;;;;;;6.40;1.90;;;;;;;13.39;59.05;98488.22;432812;1270;112544;-42
2022/05/21 21:38:54;;;;;;;7.30;1.70;;;;;;;13.27;59.84;98479.56;432774;1270;108694;-43
2022/05/21 21:49:00;;;;;;;3.60;2.10;;;;;;;13.11;60.19;98476.55;432892;1270;99296;-42
2022/05/21 22:09:35;;;;;;;5.60;2.70;;;;;;;12.84;61.37;98485.60;432959;1270;99272;-42
2022/05/21 22:19:43;;;;;;;7.20;2.60;;;;;;;12.74;61.64;98483.50;432950;1270;112491;-41
2022/05/21 22:29:49;;;;;;;4.00;2.40;;;;;;;12.73;62.57;98483.95;432798;1270;108832;-42
2022/05/21 22:39:56;;;;;;;4.60;3.20;;;;;;;12.69;62.66;98486.55;432943;1270;99340;-43
2022/05/21 22:50:04;;;;;;;6.90;2.70;;;;;;;12.66;62.94;98484.94;432472;1270;558915;-44
2022/05/21 23:00:14;;;;;;;4.40;2.20;;;;;;;12.60;63.18;98476.33;432855;1270;99257;-41
2022/05/21 23:10:23;;;;;;;3.40;2.20;;;;;;;12.64;63.72;98467.56;432842;1270;112558;-41
2022/05/21 23:20:31;;;;;;;6.50;3.10;;;;;;;12.70;64.04;98456.77;432928;1270;108865;-43
2022/05/21 23:30:39;;;;;;;5.60;3.50;;;;;;;12.69;63.98;98453.41;432839;1270;99266;-45
2022/05/21 23:40:46;;;;;;;6.60;2.50;;;;;;;12.63;63.87;98448.04;432997;1270;108902;-43
